sensor_id;sensor_type;location;lat;lon;timestamp;temperature;humidity
6627;DHT22;3349;49.830;8.748;2022-12-11T00:02:06;-2.20;99.30
6627;DHT22;3349;49.830;8.748;2022-12-11T00:04:33;-2.10;99.90
6627;DHT22;3349;49.830;8.748;2022-12-11T00:07:00;-2.10;99.90
6627;DHT22;3349;49.830;8.748;2022-12-11T00:09:28;-2.00;99.90
6627;DHT22;3349;49.830;8.748;2022-12-11T00:11:56;-1.90;99.90
6627;DHT22;3349;49.830;8.748;2022-12-11T00:14:23;-1.80;99.90
6627;DHT22;3349;49.830;8.748;2022-12-11T00:16:50;-1.80;99.90
6627;DHT22;3349;49.830;8.748;2022-12-11T00:19:17;-1.80;99.90
6627;DHT22;3349;49.830;8.748;2022-12-11T00:21:43;-1.70;99.90
6627;DHT22;3349;49.830;8.748;2022-12-11T00:24:10;-1.70;99.90
6627;DHT22;3349;49.830;8.748;2022-12-11T00:26:37;-1.50;99.90
6627;DHT22;3349;49.830;8.748;2022-12-11T00:29:06;-1.50;99.10
6627;DHT22;3349;49.830;8.748;2022-12-11T00:31:35;-1.50;99.00
6627;DHT22;3349;49.830;8.748;2022-12-11T00:34:02;-1.50;97.90
6627;DHT22;3349;49.830;8.748;2022-12-11T00:36:28;-1.50;97.80
6627;DHT22;3349;49.830;8.748;2022-12-11T00:38:55;-1.50;97.90
6627;DHT22;3349;49.830;8.748;2022-12-11T00:41:22;-1.40;97.70
6627;DHT22;3349;49.830;8.748;2022-12-11T00:43:49;-1.40;97.70
6627;DHT22;3349;49.830;8.748;2022-12-11T00:46:17;-1.40;97.20
6627;DHT22;3349;49.830;8.748;2022-12-11T00:48:44;-1.40;97.20
6627;DHT22;3349;49.830;8.748;2022-12-11T00:51:13;-1.40;96.80
6627;DHT22;3349;49.830;8.748;2022-12-11T00:53:39;-1.40;96.40
6627;DHT22;3349;49.830;8.748;2022-12-11T00:56:11;-1.40;96.40
6627;DHT22;3349;49.830;8.748;2022-12-11T00:58:38;-1.40;96.20
6627;DHT22;3349;49.830;8.748;2022-12-11T01:01:07;-1.40;96.20
6627;DHT22;3349;49.830;8.748;2022-12-11T01:03:35;-1.40;96.20
6627;DHT22;3349;49.830;8.748;2022-12-11T01:06:03;-1.40;96.20
6627;DHT22;3349;49.830;8.748;2022-12-11T01:08:31;-1.40;96.40
6627;DHT22;3349;49.830;8.748;2022-12-11T01:11:03;-1.30;96.60
6627;DHT22;3349;49.830;8.748;2022-12-11T01:13:29;-1.30;96.50
6627;DHT22;3349;49.830;8.748;2022-12-11T01:15:57;-1.30;96.10
6627;DHT22;3349;49.830;8.748;2022-12-11T01:18:24;-1.30;95.90
6627;DHT22;3349;49.830;8.748;2022-12-11T01:20:52;-1.20;96.00
6627;DHT22;3349;49.830;8.748;2022-12-11T01:23:19;-1.30;95.70
6627;DHT22;3349;49.830;8.748;2022-12-11T01:25:46;-1.20;95.90
6627;DHT22;3349;49.830;8.748;2022-12-11T01:28:12;-1.20;95.70
6627;DHT22;3349;49.830;8.748;2022-12-11T01:30:41;-1.30;95.20
6627;DHT22;3349;49.830;8.748;2022-12-11T01:33:08;-1.30;95.00
6627;DHT22;3349;49.830;8.748;2022-12-11T01:35:35;-1.20;95.60
6627;DHT22;3349;49.830;8.748;2022-12-11T01:38:03;-1.30;95.20
6627;DHT22;3349;49.830;8.748;2022-12-11T01:40:29;-1.30;95.10
6627;DHT22;3349;49.830;8.748;2022-12-11T01:42:56;-1.30;94.90
6627;DHT22;3349;49.830;8.748;2022-12-11T01:45:38;-1.30;95.40
6627;DHT22;3349;49.830;8.748;2022-12-11T01:48:09;-1.20;95.60
6627;DHT22;3349;49.830;8.748;2022-12-11T01:50:39;-1.20;95.50
6627;DHT22;3349;49.830;8.748;2022-12-11T01:53:11;-1.10;95.60
6627;DHT22;3349;49.830;8.748;2022-12-11T01:55:39;-1.10;95.60
6627;DHT22;3349;49.830;8.748;2022-12-11T01:58:08;-1.10;95.00
6627;DHT22;3349;49.830;8.748;2022-12-11T02:00:36;-1.10;94.90
6627;DHT22;3349;49.830;8.748;2022-12-11T02:03:02;-1.10;95.30
6627;DHT22;3349;49.830;8.748;2022-12-11T02:05:29;-1.10;95.30
6627;DHT22;3349;49.830;8.748;2022-12-11T02:07:58;-1.10;95.10
6627;DHT22;3349;49.830;8.748;2022-12-11T02:10:37;-1.10;94.90
6627;DHT22;3349;49.830;8.748;2022-12-11T02:13:12;-1.10;94.80
6627;DHT22;3349;49.830;8.748;2022-12-11T02:15:49;-1.10;94.90
6627;DHT22;3349;49.830;8.748;2022-12-11T02:18:22;-1.10;94.90
6627;DHT22;3349;49.830;8.748;2022-12-11T02:20:53;-1.10;95.00
6627;DHT22;3349;49.830;8.748;2022-12-11T02:26:48;-1.00;95.30
6627;DHT22;3349;49.830;8.748;2022-12-11T02:29:22;-1.00;95.40
6627;DHT22;3349;49.830;8.748;2022-12-11T02:31:56;-0.90;95.60
6627;DHT22;3349;49.830;8.748;2022-12-11T02:34:29;-0.90;95.70
6627;DHT22;3349;49.830;8.748;2022-12-11T02:37:00;-0.90;95.40
6627;DHT22;3349;49.830;8.748;2022-12-11T02:39:27;-0.80;95.20
6627;DHT22;3349;49.830;8.748;2022-12-11T02:41:55;-0.90;94.90
6627;DHT22;3349;49.830;8.748;2022-12-11T02:44:26;-0.90;94.70
6627;DHT22;3349;49.830;8.748;2022-12-11T02:46:55;-0.90;94.70
6627;DHT22;3349;49.830;8.748;2022-12-11T02:49:22;-0.90;95.00
6627;DHT22;3349;49.830;8.748;2022-12-11T02:51:50;-0.90;95.00
6627;DHT22;3349;49.830;8.748;2022-12-11T02:54:20;-0.90;94.90
6627;DHT22;3349;49.830;8.748;2022-12-11T02:56:50;-0.90;95.10
6627;DHT22;3349;49.830;8.748;2022-12-11T02:59:20;-0.90;95.20
6627;DHT22;3349;49.830;8.748;2022-12-11T03:01:50;-0.80;95.20
6627;DHT22;3349;49.830;8.748;2022-12-11T03:04:17;-0.90;94.90
6627;DHT22;3349;49.830;8.748;2022-12-11T03:06:51;-0.90;94.70
6627;DHT22;3349;49.830;8.748;2022-12-11T03:09:19;-0.90;94.80
6627;DHT22;3349;49.830;8.748;2022-12-11T03:11:45;-0.90;94.80
6627;DHT22;3349;49.830;8.748;2022-12-11T03:14:12;-0.90;94.90
6627;DHT22;3349;49.830;8.748;2022-12-11T03:16:44;-0.80;95.40
6627;DHT22;3349;49.830;8.748;2022-12-11T03:19:19;-0.80;95.70
6627;DHT22;3349;49.830;8.748;2022-12-11T03:21:53;-0.70;95.80
6627;DHT22;3349;49.830;8.748;2022-12-11T03:24:25;-0.70;95.40
6627;DHT22;3349;49.830;8.748;2022-12-11T03:26:55;-0.70;95.00
6627;DHT22;3349;49.830;8.748;2022-12-11T03:29:29;-0.60;95.00
6627;DHT22;3349;49.830;8.748;2022-12-11T03:32:02;-0.60;95.20
6627;DHT22;3349;49.830;8.748;2022-12-11T03:34:34;-0.50;95.30
6627;DHT22;3349;49.830;8.748;2022-12-11T03:37:04;-0.50;95.50
6627;DHT22;3349;49.830;8.748;2022-12-11T03:39:34;-0.50;95.10
6627;DHT22;3349;49.830;8.748;2022-12-11T03:42:05;-0.50;95.00
6627;DHT22;3349;49.830;8.748;2022-12-11T03:44:32;-0.50;94.70
6627;DHT22;3349;49.830;8.748;2022-12-11T03:47:02;-0.50;94.80
6627;DHT22;3349;49.830;8.748;2022-12-11T03:49:35;-0.60;94.70
6627;DHT22;3349;49.830;8.748;2022-12-11T03:52:05;-0.60;94.70
6627;DHT22;3349;49.830;8.748;2022-12-11T03:54:33;-0.60;94.90
6627;DHT22;3349;49.830;8.748;2022-12-11T03:57:01;-0.50;95.40
6627;DHT22;3349;49.830;8.748;2022-12-11T03:59:29;-0.50;95.40
6627;DHT22;3349;49.830;8.748;2022-12-11T04:01:56;-0.50;95.10
6627;DHT22;3349;49.830;8.748;2022-12-11T04:04:23;-0.50;95.20
6627;DHT22;3349;49.830;8.748;2022-12-11T04:06:51;-0.40;95.10
6627;DHT22;3349;49.830;8.748;2022-12-11T04:09:18;-0.40;94.70
6627;DHT22;3349;49.830;8.748;2022-12-11T04:11:44;-0.40;94.30
6627;DHT22;3349;49.830;8.748;2022-12-11T04:14:12;-0.40;94.10
6627;DHT22;3349;49.830;8.748;2022-12-11T04:16:58;-0.40;94.00
6627;DHT22;3349;49.830;8.748;2022-12-11T04:19:25;-0.30;94.20
6627;DHT22;3349;49.830;8.748;2022-12-11T04:22:12;-0.30;93.90
6627;DHT22;3349;49.830;8.748;2022-12-11T04:24:56;-0.30;93.50
6627;DHT22;3349;49.830;8.748;2022-12-11T04:27:23;-0.20;93.50
6627;DHT22;3349;49.830;8.748;2022-12-11T04:30:11;-0.30;93.40
6627;DHT22;3349;49.830;8.748;2022-12-11T04:32:38;-0.30;93.30
6627;DHT22;3349;49.830;8.748;2022-12-11T04:35:06;-0.30;93.20
6627;DHT22;3349;49.830;8.748;2022-12-11T04:37:34;-0.20;93.40
6627;DHT22;3349;49.830;8.748;2022-12-11T04:40:01;-0.30;93.20
6627;DHT22;3349;49.830;8.748;2022-12-11T04:42:28;-0.30;93.40
6627;DHT22;3349;49.830;8.748;2022-12-11T04:44:55;-0.30;93.50
6627;DHT22;3349;49.830;8.748;2022-12-11T04:47:21;-0.30;93.50
6627;DHT22;3349;49.830;8.748;2022-12-11T04:49:48;-0.20;93.60
6627;DHT22;3349;49.830;8.748;2022-12-11T04:52:16;-0.20;93.60
6627;DHT22;3349;49.830;8.748;2022-12-11T04:54:45;-0.30;93.30
6627;DHT22;3349;49.830;8.748;2022-12-11T04:57:12;-0.20;94.00
6627;DHT22;3349;49.830;8.748;2022-12-11T04:59:39;-0.20;93.70
6627;DHT22;3349;49.830;8.748;2022-12-11T05:02:06;-0.20;94.10
6627;DHT22;3349;49.830;8.748;2022-12-11T05:04:33;-0.20;93.90
6627;DHT22;3349;49.830;8.748;2022-12-11T05:07:00;-0.20;94.00
6627;DHT22;3349;49.830;8.748;2022-12-11T05:09:27;-0.20;94.10
6627;DHT22;3349;49.830;8.748;2022-12-11T05:11:55;-0.20;94.50
6627;DHT22;3349;49.830;8.748;2022-12-11T05:14:22;-0.20;94.10
6627;DHT22;3349;49.830;8.748;2022-12-11T05:16:49;-0.20;94.10
6627;DHT22;3349;49.830;8.748;2022-12-11T05:19:15;-0.10;94.10
6627;DHT22;3349;49.830;8.748;2022-12-11T05:21:42;-0.10;94.10
6627;DHT22;3349;49.830;8.748;2022-12-11T05:24:09;-0.10;94.20
6627;DHT22;3349;49.830;8.748;2022-12-11T05:26:36;-0.10;93.80
6627;DHT22;3349;49.830;8.748;2022-12-11T05:29:04;-0.10;93.80
6627;DHT22;3349;49.830;8.748;2022-12-11T05:31:30;-0.10;94.20
6627;DHT22;3349;49.830;8.748;2022-12-11T05:33:57;0.00;94.30
6627;DHT22;3349;49.830;8.748;2022-12-11T05:36:26;-0.10;93.80
6627;DHT22;3349;49.830;8.748;2022-12-11T05:38:54;-0.10;93.70
6627;DHT22;3349;49.830;8.748;2022-12-11T05:41:22;0.00;94.00
6627;DHT22;3349;49.830;8.748;2022-12-11T05:43:50;-0.10;93.70
6627;DHT22;3349;49.830;8.748;2022-12-11T05:46:19;-0.10;93.70
6627;DHT22;3349;49.830;8.748;2022-12-11T05:48:48;-0.10;93.90
6627;DHT22;3349;49.830;8.748;2022-12-11T05:51:16;-0.10;94.00
6627;DHT22;3349;49.830;8.748;2022-12-11T05:53:44;-0.10;94.20
6627;DHT22;3349;49.830;8.748;2022-12-11T05:56:13;-0.10;94.10
6627;DHT22;3349;49.830;8.748;2022-12-11T05:58:41;-0.10;94.40
6627;DHT22;3349;49.830;8.748;2022-12-11T06:01:09;-0.10;94.60
6627;DHT22;3349;49.830;8.748;2022-12-11T06:03:38;-0.10;94.70
6627;DHT22;3349;49.830;8.748;2022-12-11T06:06:05;-0.10;94.40
6627;DHT22;3349;49.830;8.748;2022-12-11T06:08:32;-0.10;94.60
6627;DHT22;3349;49.830;8.748;2022-12-11T06:11:00;-0.20;94.50
6627;DHT22;3349;49.830;8.748;2022-12-11T06:13:27;-0.10;95.00
6627;DHT22;3349;49.830;8.748;2022-12-11T06:15:54;-0.20;94.80
6627;DHT22;3349;49.830;8.748;2022-12-11T06:18:21;-0.20;94.60
6627;DHT22;3349;49.830;8.748;2022-12-11T06:20:49;-0.20;94.20
6627;DHT22;3349;49.830;8.748;2022-12-11T06:23:16;-0.20;94.70
6627;DHT22;3349;49.830;8.748;2022-12-11T06:25:42;-0.20;94.80
6627;DHT22;3349;49.830;8.748;2022-12-11T06:28:09;-0.20;95.40
6627;DHT22;3349;49.830;8.748;2022-12-11T06:30:36;-0.20;95.30
6627;DHT22;3349;49.830;8.748;2022-12-11T06:33:03;-0.20;95.50
6627;DHT22;3349;49.830;8.748;2022-12-11T06:35:30;-0.10;95.70
6627;DHT22;3349;49.830;8.748;2022-12-11T06:37:58;-0.10;95.70
6627;DHT22;3349;49.830;8.748;2022-12-11T06:40:25;-0.20;95.20
6627;DHT22;3349;49.830;8.748;2022-12-11T06:42:52;-0.20;95.30
6627;DHT22;3349;49.830;8.748;2022-12-11T06:45:19;-0.10;96.00
6627;DHT22;3349;49.830;8.748;2022-12-11T06:47:46;-0.20;96.00
6627;DHT22;3349;49.830;8.748;2022-12-11T06:50:13;-0.20;96.00
6627;DHT22;3349;49.830;8.748;2022-12-11T06:52:40;-0.20;96.10
6627;DHT22;3349;49.830;8.748;2022-12-11T06:55:08;-0.20;96.00
6627;DHT22;3349;49.830;8.748;2022-12-11T06:57:35;-0.20;96.00
6627;DHT22;3349;49.830;8.748;2022-12-11T07:00:03;-0.30;95.90
6627;DHT22;3349;49.830;8.748;2022-12-11T07:02:30;-0.30;96.20
6627;DHT22;3349;49.830;8.748;2022-12-11T07:04:56;-0.30;96.50
6627;DHT22;3349;49.830;8.748;2022-12-11T07:07:23;-0.30;96.80
6627;DHT22;3349;49.830;8.748;2022-12-11T07:09:50;-0.40;96.70
6627;DHT22;3349;49.830;8.748;2022-12-11T07:12:18;-0.40;97.30
6627;DHT22;3349;49.830;8.748;2022-12-11T07:14:45;-0.40;97.50
6627;DHT22;3349;49.830;8.748;2022-12-11T07:17:12;-0.50;97.50
6627;DHT22;3349;49.830;8.748;2022-12-11T07:19:39;-0.60;97.60
6627;DHT22;3349;49.830;8.748;2022-12-11T07:22:05;-0.60;98.00
6627;DHT22;3349;49.830;8.748;2022-12-11T07:24:32;-0.60;98.20
6627;DHT22;3349;49.830;8.748;2022-12-11T07:26:59;-0.70;98.30
6627;DHT22;3349;49.830;8.748;2022-12-11T07:29:27;-0.70;98.90
6627;DHT22;3349;49.830;8.748;2022-12-11T07:31:54;-0.70;99.10
6627;DHT22;3349;49.830;8.748;2022-12-11T07:34:21;-0.80;99.20
6627;DHT22;3349;49.830;8.748;2022-12-11T07:36:47;-0.80;99.30
6627;DHT22;3349;49.830;8.748;2022-12-11T07:39:14;-0.80;99.90
6627;DHT22;3349;49.830;8.748;2022-12-11T07:41:41;-0.80;99.90
6627;DHT22;3349;49.830;8.748;2022-12-11T07:44:08;-0.80;99.90
6627;DHT22;3349;49.830;8.748;2022-12-11T07:46:36;-0.80;99.90
6627;DHT22;3349;49.830;8.748;2022-12-11T07:49:04;-0.80;99.90
6627;DHT22;3349;49.830;8.748;2022-12-11T07:51:32;-0.70;99.90
6627;DHT22;3349;49.830;8.748;2022-12-11T07:54:02;-0.70;99.90
6627;DHT22;3349;49.830;8.748;2022-12-11T07:56:29;-0.60;99.90
6627;DHT22;3349;49.830;8.748;2022-12-11T07:58:58;-0.60;99.90
6627;DHT22;3349;49.830;8.748;2022-12-11T08:01:27;-0.50;99.90
6627;DHT22;3349;49.830;8.748;2022-12-11T08:03:56;-0.50;99.90
6627;DHT22;3349;49.830;8.748;2022-12-11T08:06:25;-0.50;99.90
6627;DHT22;3349;49.830;8.748;2022-12-11T08:08:52;-0.40;99.90
6627;DHT22;3349;49.830;8.748;2022-12-11T08:11:19;-0.40;99.90
6627;DHT22;3349;49.830;8.748;2022-12-11T08:13:46;-0.40;99.70
6627;DHT22;3349;49.830;8.748;2022-12-11T08:16:14;-0.30;99.90
6627;DHT22;3349;49.830;8.748;2022-12-11T08:18:42;-0.30;99.60
6627;DHT22;3349;49.830;8.748;2022-12-11T08:21:12;-0.30;99.50
6627;DHT22;3349;49.830;8.748;2022-12-11T08:23:39;-0.30;99.40
6627;DHT22;3349;49.830;8.748;2022-12-11T08:26:08;-0.30;98.90
6627;DHT22;3349;49.830;8.748;2022-12-11T08:28:35;-0.30;98.70
6627;DHT22;3349;49.830;8.748;2022-12-11T08:31:04;-0.20;98.50
6627;DHT22;3349;49.830;8.748;2022-12-11T08:33:31;-0.20;98.50
6627;DHT22;3349;49.830;8.748;2022-12-11T08:35:57;-0.20;98.20
6627;DHT22;3349;49.830;8.748;2022-12-11T08:38:28;-0.10;98.00
6627;DHT22;3349;49.830;8.748;2022-12-11T08:40:55;-0.10;97.80
6627;DHT22;3349;49.830;8.748;2022-12-11T08:43:23;-0.10;97.90
6627;DHT22;3349;49.830;8.748;2022-12-11T08:45:49;-0.10;98.10
6627;DHT22;3349;49.830;8.748;2022-12-11T08:48:16;0.00;98.10
6627;DHT22;3349;49.830;8.748;2022-12-11T08:50:43;0.00;97.90
6627;DHT22;3349;49.830;8.748;2022-12-11T08:53:10;0.00;97.90
6627;DHT22;3349;49.830;8.748;2022-12-11T08:55:38;0.00;97.40
6627;DHT22;3349;49.830;8.748;2022-12-11T08:58:05;0.00;97.40
6627;DHT22;3349;49.830;8.748;2022-12-11T09:00:32;0.10;97.30
6627;DHT22;3349;49.830;8.748;2022-12-11T09:02:58;0.20;96.90
6627;DHT22;3349;49.830;8.748;2022-12-11T09:05:25;0.20;96.30
6627;DHT22;3349;49.830;8.748;2022-12-11T09:07:52;0.20;96.20
6627;DHT22;3349;49.830;8.748;2022-12-11T09:10:19;0.30;96.20
6627;DHT22;3349;49.830;8.748;2022-12-11T09:12:47;0.30;95.40
6627;DHT22;3349;49.830;8.748;2022-12-11T09:15:13;0.30;95.10
6627;DHT22;3349;49.830;8.748;2022-12-11T09:17:40;0.30;94.80
6627;DHT22;3349;49.830;8.748;2022-12-11T09:20:08;0.30;95.00
6627;DHT22;3349;49.830;8.748;2022-12-11T09:22:34;0.30;94.80
6627;DHT22;3349;49.830;8.748;2022-12-11T09:25:01;0.30;95.10
6627;DHT22;3349;49.830;8.748;2022-12-11T09:27:28;0.30;95.00
6627;DHT22;3349;49.830;8.748;2022-12-11T09:29:56;0.30;95.20
6627;DHT22;3349;49.830;8.748;2022-12-11T09:32:23;0.40;95.00
6627;DHT22;3349;49.830;8.748;2022-12-11T09:34:50;0.40;95.00
6627;DHT22;3349;49.830;8.748;2022-12-11T09:37:17;0.40;94.50
6627;DHT22;3349;49.830;8.748;2022-12-11T09:39:44;0.50;94.40
6627;DHT22;3349;49.830;8.748;2022-12-11T09:42:15;0.40;93.80
6627;DHT22;3349;49.830;8.748;2022-12-11T09:44:47;0.50;94.30
6627;DHT22;3349;49.830;8.748;2022-12-11T09:47:22;0.40;93.70
6627;DHT22;3349;49.830;8.748;2022-12-11T09:49:56;0.40;93.90
6627;DHT22;3349;49.830;8.748;2022-12-11T09:52:30;0.40;92.80
6627;DHT22;3349;49.830;8.748;2022-12-11T09:54:59;0.40;93.10
6627;DHT22;3349;49.830;8.748;2022-12-11T09:57:44;0.40;92.90
6627;DHT22;3349;49.830;8.748;2022-12-11T10:00:19;0.40;93.40
6627;DHT22;3349;49.830;8.748;2022-12-11T10:03:04;0.40;93.70
6627;DHT22;3349;49.830;8.748;2022-12-11T10:05:37;0.50;94.00
6627;DHT22;3349;49.830;8.748;2022-12-11T10:08:14;0.50;93.70
6627;DHT22;3349;49.830;8.748;2022-12-11T10:10:50;0.50;93.30
6627;DHT22;3349;49.830;8.748;2022-12-11T10:13:29;0.60;93.20
6627;DHT22;3349;49.830;8.748;2022-12-11T10:15:59;0.70;92.70
6627;DHT22;3349;49.830;8.748;2022-12-11T10:18:31;0.70;92.70
6627;DHT22;3349;49.830;8.748;2022-12-11T10:21:01;0.80;91.90
6627;DHT22;3349;49.830;8.748;2022-12-11T10:23:33;0.90;92.10
6627;DHT22;3349;49.830;8.748;2022-12-11T10:26:05;0.90;91.60
6627;DHT22;3349;49.830;8.748;2022-12-11T10:28:34;1.00;91.10
6627;DHT22;3349;49.830;8.748;2022-12-11T10:31:06;1.10;90.80
6627;DHT22;3349;49.830;8.748;2022-12-11T10:33:43;1.20;91.00
6627;DHT22;3349;49.830;8.748;2022-12-11T10:36:19;1.30;90.10
6627;DHT22;3349;49.830;8.748;2022-12-11T10:38:51;1.30;88.50
6627;DHT22;3349;49.830;8.748;2022-12-11T10:41:19;1.20;86.80
6627;DHT22;3349;49.830;8.748;2022-12-11T10:43:50;1.20;86.70
6627;DHT22;3349;49.830;8.748;2022-12-11T10:46:19;1.20;86.80
6627;DHT22;3349;49.830;8.748;2022-12-11T10:48:50;1.10;87.40
6627;DHT22;3349;49.830;8.748;2022-12-11T10:51:19;1.10;86.80
6627;DHT22;3349;49.830;8.748;2022-12-11T10:53:50;1.10;88.10
6627;DHT22;3349;49.830;8.748;2022-12-11T10:56:24;1.10;88.10
6627;DHT22;3349;49.830;8.748;2022-12-11T10:58:51;1.10;88.10
6627;DHT22;3349;49.830;8.748;2022-12-11T11:01:20;1.10;87.60
6627;DHT22;3349;49.830;8.748;2022-12-11T11:03:55;1.10;87.20
6627;DHT22;3349;49.830;8.748;2022-12-11T11:06:23;1.10;86.70
6627;DHT22;3349;49.830;8.748;2022-12-11T11:08:52;1.10;86.60
6627;DHT22;3349;49.830;8.748;2022-12-11T11:11:25;1.10;86.40
6627;DHT22;3349;49.830;8.748;2022-12-11T11:14:04;1.20;87.10
6627;DHT22;3349;49.830;8.748;2022-12-11T11:16:31;1.20;86.70
6627;DHT22;3349;49.830;8.748;2022-12-11T11:19:02;1.20;86.60
6627;DHT22;3349;49.830;8.748;2022-12-11T11:21:29;1.30;86.70
6627;DHT22;3349;49.830;8.748;2022-12-11T11:23:57;1.40;85.90
6627;DHT22;3349;49.830;8.748;2022-12-11T11:26:24;1.40;85.30
6627;DHT22;3349;49.830;8.748;2022-12-11T11:28:53;1.40;84.40
6627;DHT22;3349;49.830;8.748;2022-12-11T11:31:29;1.40;83.80
6627;DHT22;3349;49.830;8.748;2022-12-11T11:33:58;1.40;83.80
6627;DHT22;3349;49.830;8.748;2022-12-11T11:36:30;1.40;83.60
6627;DHT22;3349;49.830;8.748;2022-12-11T11:39:13;1.40;84.40
6627;DHT22;3349;49.830;8.748;2022-12-11T11:41:45;1.40;83.80
6627;DHT22;3349;49.830;8.748;2022-12-11T11:44:18;1.30;83.90
6627;DHT22;3349;49.830;8.748;2022-12-11T11:46:54;1.40;84.20
6627;DHT22;3349;49.830;8.748;2022-12-11T11:49:27;1.30;83.40
6627;DHT22;3349;49.830;8.748;2022-12-11T11:52:06;1.30;84.20
6627;DHT22;3349;49.830;8.748;2022-12-11T11:54:44;1.20;83.60
6627;DHT22;3349;49.830;8.748;2022-12-11T11:57:17;1.20;83.40
6627;DHT22;3349;49.830;8.748;2022-12-11T11:59:49;1.20;84.00
6627;DHT22;3349;49.830;8.748;2022-12-11T12:02:18;1.20;84.00
6627;DHT22;3349;49.830;8.748;2022-12-11T12:04:46;1.20;83.50
6627;DHT22;3349;49.830;8.748;2022-12-11T12:07:26;1.10;83.80
6627;DHT22;3349;49.830;8.748;2022-12-11T12:10:02;1.10;83.70
6627;DHT22;3349;49.830;8.748;2022-12-11T12:12:40;1.00;83.90
6627;DHT22;3349;49.830;8.748;2022-12-11T12:15:20;1.00;84.00
6627;DHT22;3349;49.830;8.748;2022-12-11T12:17:53;1.00;84.90
6627;DHT22;3349;49.830;8.748;2022-12-11T12:20:27;1.00;85.30
6627;DHT22;3349;49.830;8.748;2022-12-11T12:23:31;1.20;86.50
6627;DHT22;3349;49.830;8.748;2022-12-11T12:26:05;1.20;86.40
6627;DHT22;3349;49.830;8.748;2022-12-11T12:28:41;1.30;87.40
6627;DHT22;3349;49.830;8.748;2022-12-11T12:31:23;1.30;88.10
6627;DHT22;3349;49.830;8.748;2022-12-11T12:34:03;1.40;86.70
6627;DHT22;3349;49.830;8.748;2022-12-11T12:36:37;1.40;86.40
6627;DHT22;3349;49.830;8.748;2022-12-11T12:39:18;1.30;84.30
6627;DHT22;3349;49.830;8.748;2022-12-11T12:41:54;1.20;85.90
6627;DHT22;3349;49.830;8.748;2022-12-11T12:44:23;1.20;86.10
6627;DHT22;3349;49.830;8.748;2022-12-11T12:46:57;1.20;88.30
6627;DHT22;3349;49.830;8.748;2022-12-11T12:49:32;1.10;89.30
6627;DHT22;3349;49.830;8.748;2022-12-11T12:52:05;1.10;90.60
6627;DHT22;3349;49.830;8.748;2022-12-11T12:54:34;1.10;90.60
6627;DHT22;3349;49.830;8.748;2022-12-11T12:57:03;1.10;91.10
6627;DHT22;3349;49.830;8.748;2022-12-11T12:59:33;1.20;91.30
6627;DHT22;3349;49.830;8.748;2022-12-11T13:02:02;1.10;91.40
6627;DHT22;3349;49.830;8.748;2022-12-11T13:04:38;1.10;91.10
6627;DHT22;3349;49.830;8.748;2022-12-11T13:07:12;1.10;91.10
6627;DHT22;3349;49.830;8.748;2022-12-11T13:09:42;1.10;91.00
6627;DHT22;3349;49.830;8.748;2022-12-11T13:12:33;1.00;91.10
6627;DHT22;3349;49.830;8.748;2022-12-11T13:15:00;1.00;91.00
6627;DHT22;3349;49.830;8.748;2022-12-11T13:17:36;0.90;91.60
6627;DHT22;3349;49.830;8.748;2022-12-11T13:20:13;0.80;91.80
6627;DHT22;3349;49.830;8.748;2022-12-11T13:22:53;0.80;91.70
6627;DHT22;3349;49.830;8.748;2022-12-11T13:25:26;0.70;92.30
6627;DHT22;3349;49.830;8.748;2022-12-11T13:28:05;0.70;92.80
6627;DHT22;3349;49.830;8.748;2022-12-11T13:30:32;0.70;92.80
6627;DHT22;3349;49.830;8.748;2022-12-11T13:33:02;0.60;93.00
6627;DHT22;3349;49.830;8.748;2022-12-11T13:35:30;0.60;93.20
6627;DHT22;3349;49.830;8.748;2022-12-11T13:38:02;0.50;93.20
6627;DHT22;3349;49.830;8.748;2022-12-11T13:40:37;0.50;93.40
6627;DHT22;3349;49.830;8.748;2022-12-11T13:43:08;0.50;93.50
6627;DHT22;3349;49.830;8.748;2022-12-11T13:45:39;0.40;93.50
6627;DHT22;3349;49.830;8.748;2022-12-11T13:48:16;0.40;93.80
6627;DHT22;3349;49.830;8.748;2022-12-11T13:50:45;0.40;94.50
6627;DHT22;3349;49.830;8.748;2022-12-11T13:53:14;0.40;94.50
6627;DHT22;3349;49.830;8.748;2022-12-11T13:55:43;0.30;94.50
6627;DHT22;3349;49.830;8.748;2022-12-11T13:58:17;0.30;95.00
6627;DHT22;3349;49.830;8.748;2022-12-11T14:00:54;0.40;95.50
6627;DHT22;3349;49.830;8.748;2022-12-11T14:03:23;0.30;95.50
6627;DHT22;3349;49.830;8.748;2022-12-11T14:05:50;0.30;95.80
6627;DHT22;3349;49.830;8.748;2022-12-11T14:08:20;0.30;95.00
6627;DHT22;3349;49.830;8.748;2022-12-11T14:10:52;0.30;94.90
6627;DHT22;3349;49.830;8.748;2022-12-11T14:13:22;0.30;95.50
6627;DHT22;3349;49.830;8.748;2022-12-11T14:15:50;0.30;95.40
6627;DHT22;3349;49.830;8.748;2022-12-11T14:18:20;0.30;95.60
6627;DHT22;3349;49.830;8.748;2022-12-11T14:20:53;0.30;96.10
6627;DHT22;3349;49.830;8.748;2022-12-11T14:23:22;0.30;96.70
6627;DHT22;3349;49.830;8.748;2022-12-11T14:25:53;0.30;96.50
6627;DHT22;3349;49.830;8.748;2022-12-11T14:28:21;0.30;96.90
6627;DHT22;3349;49.830;8.748;2022-12-11T14:30:53;0.30;97.00
6627;DHT22;3349;49.830;8.748;2022-12-11T14:33:22;0.30;96.80
6627;DHT22;3349;49.830;8.748;2022-12-11T14:35:51;0.30;96.30
6627;DHT22;3349;49.830;8.748;2022-12-11T14:38:24;0.30;96.40
6627;DHT22;3349;49.830;8.748;2022-12-11T14:40:56;0.30;96.20
6627;DHT22;3349;49.830;8.748;2022-12-11T14:43:28;0.30;96.80
6627;DHT22;3349;49.830;8.748;2022-12-11T14:45:59;0.30;97.30
6627;DHT22;3349;49.830;8.748;2022-12-11T14:48:31;0.30;97.40
6627;DHT22;3349;49.830;8.748;2022-12-11T14:51:03;0.30;96.90
6627;DHT22;3349;49.830;8.748;2022-12-11T14:53:34;0.30;97.00
6627;DHT22;3349;49.830;8.748;2022-12-11T14:56:05;0.30;97.30
6627;DHT22;3349;49.830;8.748;2022-12-11T14:58:37;0.40;97.40
6627;DHT22;3349;49.830;8.748;2022-12-11T15:01:20;0.40;97.70
6627;DHT22;3349;49.830;8.748;2022-12-11T15:03:47;0.40;97.80
6627;DHT22;3349;49.830;8.748;2022-12-11T15:06:23;0.40;97.50
6627;DHT22;3349;49.830;8.748;2022-12-11T15:08:52;0.40;97.30
6627;DHT22;3349;49.830;8.748;2022-12-11T15:11:21;0.40;97.20
6627;DHT22;3349;49.830;8.748;2022-12-11T15:13:51;0.40;97.10
6627;DHT22;3349;49.830;8.748;2022-12-11T15:16:19;0.50;97.20
6627;DHT22;3349;49.830;8.748;2022-12-11T15:18:47;0.50;97.00
6627;DHT22;3349;49.830;8.748;2022-12-11T15:21:15;0.50;96.80
6627;DHT22;3349;49.830;8.748;2022-12-11T15:23:49;0.50;96.30
6627;DHT22;3349;49.830;8.748;2022-12-11T15:26:17;0.50;95.40
6627;DHT22;3349;49.830;8.748;2022-12-11T15:28:46;0.50;95.20
6627;DHT22;3349;49.830;8.748;2022-12-11T15:31:24;0.50;95.30
6627;DHT22;3349;49.830;8.748;2022-12-11T15:33:51;0.50;95.20
6627;DHT22;3349;49.830;8.748;2022-12-11T15:36:22;0.50;95.40
6627;DHT22;3349;49.830;8.748;2022-12-11T15:38:49;0.50;94.80
6627;DHT22;3349;49.830;8.748;2022-12-11T15:41:17;0.50;94.50
6627;DHT22;3349;49.830;8.748;2022-12-11T15:43:47;0.50;94.20
6627;DHT22;3349;49.830;8.748;2022-12-11T15:46:14;0.50;94.30
6627;DHT22;3349;49.830;8.748;2022-12-11T15:48:40;0.50;93.90
6627;DHT22;3349;49.830;8.748;2022-12-11T15:51:08;0.50;94.20
6627;DHT22;3349;49.830;8.748;2022-12-11T15:53:35;0.50;94.40
6627;DHT22;3349;49.830;8.748;2022-12-11T15:56:02;0.50;94.30
6627;DHT22;3349;49.830;8.748;2022-12-11T15:58:29;0.50;94.10
6627;DHT22;3349;49.830;8.748;2022-12-11T16:00:57;0.50;93.90
6627;DHT22;3349;49.830;8.748;2022-12-11T16:03:24;0.50;94.00
6627;DHT22;3349;49.830;8.748;2022-12-11T16:05:51;0.40;94.20
6627;DHT22;3349;49.830;8.748;2022-12-11T16:08:20;0.40;94.40
6627;DHT22;3349;49.830;8.748;2022-12-11T16:10:47;0.40;94.20
6627;DHT22;3349;49.830;8.748;2022-12-11T16:13:14;0.40;94.30
6627;DHT22;3349;49.830;8.748;2022-12-11T16:15:43;0.40;93.90
6627;DHT22;3349;49.830;8.748;2022-12-11T16:18:13;0.30;93.70
6627;DHT22;3349;49.830;8.748;2022-12-11T16:20:42;0.30;94.00
6627;DHT22;3349;49.830;8.748;2022-12-11T16:23:10;0.20;94.00
6627;DHT22;3349;49.830;8.748;2022-12-11T16:25:37;0.20;94.10
6627;DHT22;3349;49.830;8.748;2022-12-11T16:28:05;0.20;94.30
6627;DHT22;3349;49.830;8.748;2022-12-11T16:30:33;0.20;94.30